Time;durP1;ratioP1;P1;durP2;ratioP2;P2;SDS_P1;SDS_P2;PMS_P1;PMS_P2;Temp;Humidity;BMP_temperature;BMP_pressure;BME280_temperature;BME280_humidity;BME280_pressure;Samples;Min_cycle;Max_cycle;Signal;HPM_P1;HPM_P2
2024/01/08 00:01:50;;;;;;;28.00;17.90;;;;;;;-8.57;73.89;97293.98;108060;1238;103497;-90
2024/01/08 00:04:16;;;;;;;29.70;17.90;;;;;;;-8.57;73.71;97300.98;109274;1238;101030;-91
2024/01/08 00:06:43;;;;;;;37.50;19.50;;;;;;;-8.62;73.50;97302.16;109376;1238;98896;-91
2024/01/08 00:09:09;;;;;;;36.90;24.10;;;;;;;-8.66;73.65;97305.71;109209;1235;97855;-92
2024/01/08 00:11:37;;;;;;;52.70;30.70;;;;;;;-8.64;73.77;97303.55;109408;1235;97843;-90
2024/01/08 00:14:03;;;;;;;31.80;20.00;;;;;;;-8.65;73.55;97306.23;108599;1238;101256;-75
2024/01/08 00:16:29;;;;;;;28.40;18.90;;;;;;;-8.67;73.53;97307.57;107763;1245;97944;-78
2024/01/08 00:18:56;;;;;;;37.70;24.20;;;;;;;-8.71;73.62;97313.05;107750;1238;97906;-81
2024/01/08 00:21:22;;;;;;;33.00;20.70;;;;;;;-8.73;73.68;97316.63;107933;1238;97822;-78
2024/01/08 00:23:49;;;;;;;50.20;28.90;;;;;;;-8.76;73.78;97322.20;107811;1243;100333;-79
2024/01/08 00:26:16;;;;;;;33.10;20.50;;;;;;;-8.76;73.91;97320.11;107778;1244;99195;-83
2024/01/08 00:28:42;;;;;;;28.80;18.60;;;;;;;-8.76;73.99;97320.85;107800;1238;98062;-79
2024/01/08 00:31:08;;;;;;;27.20;18.10;;;;;;;-8.80;73.88;97324.05;107793;1236;97987;-78
2024/01/08 00:33:35;;;;;;;49.20;32.80;;;;;;;-8.89;73.61;97327.56;107757;1248;109037;-82
2024/01/08 00:36:01;;;;;;;50.50;28.60;;;;;;;-8.92;73.82;97332.62;107771;1240;99205;-83
2024/01/08 00:38:28;;;;;;;52.90;25.50;;;;;;;-8.90;73.80;97331.64;107817;1247;98798;-82
2024/01/08 00:40:54;;;;;;;82.50;37.50;;;;;;;-8.89;73.82;97335.96;107891;1238;97848;-83
2024/01/08 00:43:20;;;;;;;60.70;33.20;;;;;;;-8.89;73.78;97338.25;107880;1238;101073;-83
2024/01/08 00:45:46;;;;;;;85.70;54.10;;;;;;;-8.87;73.77;97339.83;107878;1247;97982;-75
2024/01/08 00:48:13;;;;;;;41.20;28.50;;;;;;;-8.85;73.68;97340.77;107761;1238;98040;-74
2024/01/08 00:50:39;;;;;;;99.00;43.90;;;;;;;-8.85;73.70;97336.59;107848;1248;97980;-78
2024/01/08 00:53:06;;;;;;;91.90;38.10;;;;;;;-8.84;73.70;97343.31;107970;1241;108420;-79
2024/01/08 00:55:32;;;;;;;61.00;30.20;;;;;;;-8.82;73.67;97347.71;107771;1247;97927;-78
2024/01/08 00:57:59;;;;;;;56.20;29.00;;;;;;;-8.81;73.65;97344.70;107805;1238;99154;-81
2024/01/08 01:00:25;;;;;;;53.80;28.10;;;;;;;-8.80;73.60;97343.75;107882;1239;99291;-80
2024/01/08 01:02:51;;;;;;;56.00;29.30;;;;;;;-8.79;73.64;97349.61;109828;1236;99985;-91
2024/01/08 01:05:17;;;;;;;39.40;24.00;;;;;;;-8.77;73.59;97355.46;109932;1234;97814;-90
2024/01/08 01:07:45;;;;;;;34.60;21.00;;;;;;;-8.75;73.57;97358.81;109806;1235;97875;-90
2024/01/08 01:10:11;;;;;;;40.30;24.00;;;;;;;-8.75;73.39;97357.90;108352;1238;99137;-79
2024/01/08 01:12:38;;;;;;;34.50;20.90;;;;;;;-8.73;73.31;97361.51;107888;1249;97918;-77
2024/01/08 01:15:05;;;;;;;29.60;19.00;;;;;;;-8.74;73.15;97366.09;107789;1244;99240;-79
2024/01/08 01:17:31;;;;;;;30.80;19.30;;;;;;;-8.76;73.15;97371.58;109000;1238;98467;-91
2024/01/08 01:19:57;;;;;;;33.00;19.30;;;;;;;-8.75;73.21;97372.05;109541;1238;97952;-90
2024/01/08 01:22:24;;;;;;;28.10;19.40;;;;;;;-8.78;72.93;97370.86;109497;1238;97812;-90
2024/01/08 01:24:50;;;;;;;31.30;19.80;;;;;;;-8.79;72.93;97374.39;109493;1238;107267;-90
2024/01/08 01:27:16;;;;;;;33.60;21.30;;;;;;;-8.79;72.99;97376.51;109376;1238;97929;-91
2024/01/08 01:29:43;;;;;;;34.90;20.30;;;;;;;-8.78;72.99;97375.20;108018;1238;99160;-79
2024/01/08 01:32:10;;;;;;;33.60;22.20;;;;;;;-8.78;72.84;97374.50;107895;1235;97912;-76
2024/01/08 01:34:37;;;;;;;33.60;22.20;;;;;;;-8.77;72.80;97374.30;107771;1237;99861;-78
2024/01/08 01:37:04;;;;;;;34.80;22.60;;;;;;;-8.77;72.77;97376.35;107851;1237;97904;-75
2024/01/08 01:39:32;;;;;;;37.40;23.70;;;;;;;-8.77;72.82;97374.45;107819;1245;97939;-75
2024/01/08 01:41:58;;;;;;;34.70;22.00;;;;;;;-8.78;72.87;97375.90;107859;1238;98281;-74
2024/01/08 01:44:25;;;;;;;34.70;23.00;;;;;;;-8.77;72.87;97380.04;107834;1241;98016;-76
2024/01/08 01:46:53;;;;;;;38.90;22.40;;;;;;;-8.75;73.02;97378.55;109141;1237;97894;-92
2024/01/08 01:49:22;;;;;;;36.10;22.50;;;;;;;-8.74;73.07;97380.73;107849;1235;97988;-82
2024/01/08 01:51:50;;;;;;;34.20;22.90;;;;;;;-8.75;72.96;97381.63;107860;1247;102477;-81
2024/01/08 01:54:21;;;;;;;36.50;23.00;;;;;;;-8.76;72.91;97384.67;107864;1244;101414;-79
2024/01/08 01:56:55;;;;;;;38.30;23.80;;;;;;;-8.78;72.96;97382.86;107809;1239;100018;-78
2024/01/08 01:59:21;;;;;;;38.20;24.20;;;;;;;-8.78;73.09;97379.04;107781;1239;97949;-78
2024/01/08 02:01:48;;;;;;;37.90;24.30;;;;;;;-8.82;73.07;97386.30;108855;1234;98255;-90
2024/01/08 02:04:15;;;;;;;41.30;25.00;;;;;;;-8.84;73.15;97387.45;109769;1235;97646;-91
2024/01/08 02:06:44;;;;;;;61.90;33.00;;;;;;;-8.81;73.32;97387.06;109843;1235;97893;-91
2024/01/08 02:09:14;;;;;;;57.30;31.30;;;;;;;-8.79;73.19;97388.69;109315;1238;99188;-83
2024/01/08 02:11:40;;;;;;;46.60;27.60;;;;;;;-8.76;73.33;97392.02;107832;1235;98853;-83
2024/01/08 02:14:06;;;;;;;40.30;24.70;;;;;;;-8.75;73.23;97394.73;107805;1235;97941;-83
2024/01/08 02:16:34;;;;;;;36.10;22.90;;;;;;;-8.76;73.19;97394.94;108455;1235;97906;-92
2024/01/08 02:19:02;;;;;;;33.70;22.00;;;;;;;-8.73;73.47;97397.60;109837;1239;96915;-91
2024/01/08 02:21:28;;;;;;;36.60;22.80;;;;;;;-8.70;73.44;97400.03;110015;1238;97824;-92
2024/01/08 02:23:54;;;;;;;36.60;23.50;;;;;;;-8.70;73.32;97405.27;110246;1235;98857;-92
2024/01/08 02:26:22;;;;;;;37.90;23.50;;;;;;;-8.72;73.27;97404.35;109148;1238;103390;-84
2024/01/08 02:28:48;;;;;;;38.80;23.10;;;;;;;-8.76;73.05;97406.46;107809;1238;99042;-82
2024/01/08 02:31:14;;;;;;;36.20;24.00;;;;;;;-8.81;72.95;97408.15;108096;1235;97889;-83
2024/01/08 02:33:41;;;;;;;40.20;24.50;;;;;;;-8.81;73.24;97413.63;107802;1249;99127;-83
2024/01/08 02:36:07;;;;;;;39.20;24.70;;;;;;;-8.83;73.31;97417.05;107858;1238;97920;-84
2024/01/08 02:38:34;;;;;;;36.80;24.10;;;;;;;-8.83;73.52;97418.45;107808;1237;108097;-84
2024/01/08 02:41:00;;;;;;;43.40;27.10;;;;;;;-8.81;73.58;97417.09;107780;1238;97884;-83
2024/01/08 02:43:26;;;;;;;39.30;25.60;;;;;;;-8.80;73.44;97422.93;107817;1238;97902;-83
2024/01/08 02:45:53;;;;;;;37.90;25.30;;;;;;;-8.83;73.46;97422.61;108472;1235;97989;-92
2024/01/08 02:48:20;;;;;;;36.80;23.60;;;;;;;-8.83;73.30;97422.99;110145;1235;101031;-92
2024/01/08 02:50:46;;;;;;;42.90;25.60;;;;;;;-8.86;72.96;97420.55;109887;1234;97881;-91
2024/01/08 02:53:13;;;;;;;33.30;23.10;;;;;;;-8.87;72.93;97425.83;109752;1235;97792;-91
2024/01/08 02:55:39;;;;;;;31.30;22.40;;;;;;;-8.91;72.56;97425.90;109775;1237;97813;-91
2024/01/08 02:58:06;;;;;;;35.80;23.20;;;;;;;-8.97;72.25;97430.45;109607;1234;108344;-91
2024/01/08 03:00:32;;;;;;;33.80;20.90;;;;;;;-9.03;71.97;97430.65;109601;1237;97802;-91
2024/01/08 03:02:58;;;;;;;34.60;23.30;;;;;;;-9.04;72.46;97432.75;107750;1238;97904;-74
2024/01/08 03:05:25;;;;;;;35.10;22.80;;;;;;;-9.00;72.53;97429.58;107872;1241;97899;-76
2024/01/08 03:07:51;;;;;;;32.60;21.90;;;;;;;-8.98;72.55;97434.67;108384;1235;109111;-92
2024/01/08 03:10:17;;;;;;;32.60;22.30;;;;;;;-8.97;72.36;97439.54;109650;1238;97818;-90
2024/01/08 03:12:44;;;;;;;38.00;22.20;;;;;;;-8.99;72.40;97441.54;109603;1235;97818;-91
2024/01/08 03:15:10;;;;;;;32.60;21.70;;;;;;;-8.98;72.42;97448.65;109744;1235;97914;-92
2024/01/08 03:17:36;;;;;;;30.10;20.60;;;;;;;-8.99;72.10;97451.80;109825;1238;101277;-92
2024/01/08 03:20:10;;;;;;;29.70;19.20;;;;;;;-9.04;72.05;97452.63;109863;1238;97874;-92
2024/01/08 03:22:39;;;;;;;31.00;20.40;;;;;;;-9.03;72.22;97455.74;109731;1235;97641;-92
2024/01/08 03:25:06;;;;;;;27.10;18.60;;;;;;;-9.04;72.02;97455.46;107951;1235;98539;-74
2024/01/08 03:27:33;;;;;;;28.50;19.40;;;;;;;-9.09;71.99;97458.88;108873;1236;97991;-91
2024/01/08 03:29:59;;;;;;;33.20;20.40;;;;;;;-9.13;72.04;97461.84;109803;1234;97154;-91
2024/01/08 03:32:25;;;;;;;31.10;20.00;;;;;;;-9.14;72.05;97460.71;108398;1247;99232;-76
2024/01/08 03:34:52;;;;;;;31.90;20.20;;;;;;;-9.21;71.86;97458.49;107805;1239;98467;-74
2024/01/08 03:37:18;;;;;;;31.00;21.90;;;;;;;-9.27;72.06;97460.06;107824;1238;97873;-74
2024/01/08 03:39:44;;;;;;;31.60;21.10;;;;;;;-9.30;72.19;97464.14;107803;1239;97895;-76
2024/01/08 03:42:11;;;;;;;32.50;21.90;;;;;;;-9.30;72.34;97464.27;107863;1246;97892;-74
2024/01/08 03:44:37;;;;;;;35.10;22.00;;;;;;;-9.29;72.48;97466.66;107842;1239;98356;-86
2024/01/08 03:47:04;;;;;;;31.80;21.20;;;;;;;-9.31;72.15;97468.67;108314;1238;97851;-74
2024/01/08 03:49:30;;;;;;;32.60;21.80;;;;;;;-9.37;72.00;97469.53;107767;1235;97955;-76
2024/01/08 03:51:56;;;;;;;31.00;22.10;;;;;;;-9.39;72.29;97468.79;107820;1239;97920;-75
2024/01/08 03:54:23;;;;;;;36.90;22.50;;;;;;;-9.42;72.44;97467.92;107760;1239;98402;-74
2024/01/08 03:56:49;;;;;;;34.50;21.40;;;;;;;-9.45;72.37;97468.98;107783;1238;97896;-75
2024/01/08 03:59:16;;;;;;;35.10;20.70;;;;;;;-9.50;72.39;97467.83;107818;1235;97968;-74
2024/01/08 04:01:44;;;;;;;34.90;22.30;;;;;;;-9.53;72.50;97472.55;107782;1246;98017;-81
2024/01/08 04:04:12;;;;;;;36.00;22.60;;;;;;;-9.53;72.64;97478.65;107704;1248;98430;-82
2024/01/08 04:06:39;;;;;;;36.30;23.90;;;;;;;-9.50;72.77;97482.46;107576;1239;103537;-80
2024/01/08 04:09:05;;;;;;;34.00;22.60;;;;;;;-9.49;72.85;97486.25;107764;1238;97956;-79
2024/01/08 04:11:31;;;;;;;37.10;23.20;;;;;;;-9.49;72.81;97487.48;107747;1235;98520;-79
2024/01/08 04:13:58;;;;;;;35.20;23.80;;;;;;;-9.48;72.73;97488.67;107838;1249;97933;-80
2024/01/08 04:16:24;;;;;;;37.30;21.60;;;;;;;-9.49;72.81;97492.70;107806;1237;103652;-78
2024/01/08 04:18:50;;;;;;;40.60;23.50;;;;;;;-9.51;72.88;97493.67;107821;1245;97937;-79
2024/01/08 04:21:17;;;;;;;37.70;24.10;;;;;;;-9.53;72.77;97496.27;107802;1239;99174;-78
2024/01/08 04:23:43;;;;;;;40.20;25.30;;;;;;;-9.57;72.87;97502.77;108126;1236;98011;-76
2024/01/08 04:28:53;;;;;;;35.50;21.80;;;;;;;-9.58;73.08;97513.81;108112;1236;137075;-75
2024/01/08 04:31:20;;;;;;;34.30;21.50;;;;;;;-9.58;73.02;97517.29;108048;1234;97965;-75
2024/01/08 04:33:47;;;;;;;31.80;20.10;;;;;;;-9.61;72.79;97522.16;107992;1235;97899;-75
2024/01/08 04:36:13;;;;;;;33.70;20.20;;;;;;;-9.65;72.56;97518.85;107969;1245;97994;-75
2024/01/08 04:38:40;;;;;;;32.50;21.20;;;;;;;-9.69;72.40;97523.66;108030;1238;97905;-75
2024/01/08 04:41:07;;;;;;;32.90;19.30;;;;;;;-9.69;72.48;97525.05;107940;1234;107430;-75
2024/01/08 04:43:34;;;;;;;32.10;20.20;;;;;;;-9.71;72.35;97528.98;107935;1238;97940;-75
2024/01/08 04:46:00;;;;;;;37.90;20.50;;;;;;;-9.70;72.45;97528.05;107940;1245;97904;-75
2024/01/08 04:48:26;;;;;;;36.40;21.50;;;;;;;-9.69;72.41;97529.02;108032;1244;97905;-75
2024/01/08 04:50:53;;;;;;;33.60;22.60;;;;;;;-9.69;72.34;97529.05;107911;1248;107622;-75
2024/01/08 04:53:19;;;;;;;33.70;22.40;;;;;;;-9.69;72.49;97533.94;107907;1246;97904;-75
2024/01/08 04:55:45;;;;;;;32.60;22.90;;;;;;;-9.69;72.42;97534.98;107967;1237;97939;-75
2024/01/08 04:58:12;;;;;;;40.50;22.80;;;;;;;-9.68;72.56;97538.92;108060;1245;97968;-75
2024/01/08 05:00:38;;;;;;;32.30;21.50;;;;;;;-9.70;72.49;97540.75;107953;1245;98734;-75
2024/01/08 05:03:04;;;;;;;35.20;23.90;;;;;;;-9.70;72.46;97546.68;107975;1235;97888;-75
